Emmonak, Alaska
Current Conditions -  °F | °C
As of 7:16 PM on Sunday 21 Dec 2014 (Local Time) from PAEM Reporting Station
Broken Clouds Broken Clouds  
Wind Chill: -22°   Ceiling: 1900
Heat Index: -16°   Visibility: 10mi
Dew Point: -19°   Wind: 6mph
Humidity: 78%   Direction: 320°NW
Pressure: 29.65"   Gusts: NA
Location:  62.78°N, 164.53°W
Report Text: PAEM 220416Z AUTO 32005KT 10SM BKN019 M16/M19 A2965 RMK AO1
Loading
Personal Weather Stations






























Interactive Weather Map New forecast layout! Learn more

10-Day Weather Forecast

Advertisements
Track Severe Weather on mobile